Strang, Nebraska
Current Conditions -  °F | °C
As of 6:35 PM on Friday 24 Oct 2014 (Local Time) from KHJH Reporting Station
Clear Clear  
Wind Chill: 23°   Ceiling: Unl
Heat Index: 23°   Visibility: 10mi
Dew Point:   Wind: 3mph
Humidity: 43%   Direction: 270°W
Pressure: 29.95"   Gusts: NA
Location:  40.42°N, 97.59°W
Report Text: KHJH 242335Z AUTO 27003KT 10SM CLR 23/09 A2995 RMK AO2 T02250093
Loading
Personal Weather Stations






























Interactive Weather Map
Tropical Storm Tracking
New forecast layout! Learn more

10-Day Weather Forecast

Advertisements
Track Severe Weather on mobile